createdAt,value
2019-03-11T00:00:21.919Z,994.09
2019-03-11T00:01:21.941Z,994.15
2019-03-11T00:02:21.948Z,994.05
2019-03-11T00:03:21.894Z,994.16
2019-03-11T00:04:22.703Z,994.02
2019-03-11T00:05:21.883Z,994.11
2019-03-11T00:06:21.876Z,993.9
2019-03-11T00:07:21.860Z,993.98
2019-03-11T00:08:21.858Z,993.97
2019-03-11T00:09:21.849Z,993.9
2019-03-11T00:10:21.834Z,993.88
2019-03-11T00:11:21.827Z,993.97
2019-03-11T00:12:21.817Z,993.95
2019-03-11T00:13:21.808Z,993.87
2019-03-11T00:14:21.805Z,993.94
2019-03-11T00:15:21.798Z,993.9
2019-03-11T00:16:21.797Z,993.88
2019-03-11T00:17:21.774Z,993.87
2019-03-11T00:18:21.766Z,993.84
2019-03-11T00:19:21.780Z,993.88
2019-03-11T00:20:21.777Z,993.95
2019-03-11T00:21:21.741Z,993.88
2019-03-11T00:22:21.731Z,993.89
2019-03-11T00:23:21.722Z,993.87
2019-03-11T00:24:21.727Z,993.84
2019-03-11T00:25:21.706Z,993.92
2019-03-11T00:26:21.700Z,993.9
2019-03-11T00:27:21.693Z,993.92
2019-03-11T00:28:21.679Z,993.9
2019-03-11T00:29:21.671Z,993.9
2019-03-11T00:30:21.671Z,993.89
2019-03-11T00:31:21.671Z,993.91
2019-03-11T00:32:21.657Z,993.96
2019-03-11T00:33:21.638Z,993.87
2019-03-11T00:34:21.632Z,993.94
2019-03-11T00:35:21.740Z,993.94
2019-03-11T00:36:21.617Z,993.92
2019-03-11T00:37:21.614Z,993.99
2019-03-11T00:38:21.594Z,994.01
2019-03-11T00:39:21.589Z,994.08
2019-03-11T00:40:21.579Z,993.99
2019-03-11T00:41:21.569Z,993.99
2019-03-11T00:42:21.561Z,994.04
2019-03-11T00:43:21.557Z,993.95
2019-03-11T00:44:21.549Z,994.07
2019-03-11T00:45:24.054Z,993.98
2019-03-11T00:46:21.530Z,994.01
2019-03-11T00:47:21.521Z,994.05
2019-03-11T00:48:21.511Z,994
2019-03-11T00:49:21.500Z,994.05
2019-03-11T00:50:21.491Z,994.05
2019-03-11T00:51:21.485Z,994.09
2019-03-11T00:52:21.472Z,994.04
2019-03-11T00:53:21.468Z,993.95
2019-03-11T00:54:21.472Z,993.99
2019-03-11T00:55:21.453Z,994
2019-03-11T00:56:21.451Z,993.96
2019-03-11T00:57:21.451Z,993.96
2019-03-11T00:58:21.480Z,994.04
2019-03-11T00:59:21.427Z,993.97
2019-03-11T01:00:21.419Z,994.01
2019-03-11T01:01:21.495Z,993.95
2019-03-11T01:02:21.407Z,993.96
2019-03-11T01:03:21.394Z,993.94
2019-03-11T01:04:22.478Z,993.95
2019-03-11T01:05:21.374Z,993.93
2019-03-11T01:06:21.388Z,993.86
2019-03-11T01:07:21.361Z,993.93
2019-03-11T01:08:21.352Z,993.92
2019-03-11T01:09:21.341Z,993.82
2019-03-11T01:10:21.323Z,993.82
2019-03-11T01:11:21.316Z,993.87
2019-03-11T01:12:21.316Z,993.85
2019-03-11T01:13:21.304Z,993.82
2019-03-11T01:14:21.293Z,993.84
2019-03-11T01:15:21.286Z,993.78
2019-03-11T01:16:21.282Z,993.87
2019-03-11T01:17:21.263Z,993.79
2019-03-11T01:18:21.274Z,993.88
2019-03-11T01:19:21.255Z,993.82
2019-03-11T01:20:21.247Z,993.92
2019-03-11T01:21:21.229Z,993.83
2019-03-11T01:22:21.223Z,993.84
2019-03-11T01:23:21.223Z,993.87
2019-03-11T01:24:21.209Z,993.79
2019-03-11T01:25:21.198Z,993.76
2019-03-11T01:26:21.194Z,993.88
2019-03-11T01:27:21.178Z,993.78
2019-03-11T01:28:21.169Z,993.77
2019-03-11T01:29:21.163Z,993.76
2019-03-11T01:30:21.160Z,993.74
2019-03-11T01:31:21.139Z,993.67
2019-03-11T01:32:21.128Z,993.71
2019-03-11T01:33:21.137Z,993.67
2019-03-11T01:34:21.112Z,993.65
2019-03-11T01:35:21.104Z,993.64
2019-03-11T01:36:21.092Z,993.61
2019-03-11T01:37:21.085Z,993.6
2019-03-11T01:38:21.083Z,993.61
2019-03-11T01:39:21.071Z,993.59
2019-03-11T01:40:21.057Z,993.54
2019-03-11T01:41:21.049Z,993.57
2019-03-11T01:42:21.046Z,993.55
2019-03-11T01:43:21.043Z,993.48
2019-03-11T01:44:21.025Z,993.48
2019-03-11T01:45:21.101Z,993.47
2019-03-11T01:46:21.009Z,993.47
2019-03-11T01:47:21.002Z,993.43
2019-03-11T01:48:20.993Z,993.42
2019-03-11T01:49:20.990Z,993.37
2019-03-11T01:50:20.971Z,993.44
2019-03-11T01:51:20.963Z,993.36
2019-03-11T01:52:20.956Z,993.31
2019-03-11T01:53:20.952Z,993.3
2019-03-11T01:54:20.939Z,993.28
2019-03-11T01:55:20.928Z,993.28
2019-03-11T01:56:20.920Z,993.23
2019-03-11T01:57:20.910Z,993.19
2019-03-11T01:58:20.902Z,993.17
2019-03-11T01:59:20.902Z,993.11
2019-03-11T02:00:20.883Z,993.06
2019-03-11T02:01:20.875Z,993.12
2019-03-11T02:02:20.868Z,993.11
2019-03-11T02:03:20.859Z,993.09
2019-03-11T02:04:20.855Z,993.11
2019-03-11T02:05:20.841Z,993.1
2019-03-11T02:06:20.837Z,993.13
2019-03-11T02:07:20.823Z,993.04
2019-03-11T02:08:20.814Z,993.07
2019-03-11T02:09:20.805Z,993.02
2019-03-11T02:10:20.794Z,993.02
2019-03-11T02:11:20.786Z,993
2019-03-11T02:12:20.777Z,993.05
2019-03-11T02:13:20.769Z,992.98
2019-03-11T02:14:20.760Z,993.01
2019-03-11T02:15:20.755Z,993.04
2019-03-11T02:16:20.746Z,992.97
2019-03-11T02:17:20.740Z,993
2019-03-11T02:18:20.723Z,992.99
2019-03-11T02:19:20.715Z,993
2019-03-11T02:20:20.707Z,992.96
2019-03-11T02:21:20.699Z,992.94
2019-03-11T02:22:20.693Z,993
2019-03-11T02:23:20.678Z,992.96
2019-03-11T02:24:20.673Z,992.96
2019-03-11T02:25:20.661Z,992.96
2019-03-11T02:26:20.652Z,992.89
2019-03-11T02:27:20.642Z,992.88
2019-03-11T02:28:20.635Z,992.83
2019-03-11T02:29:20.628Z,992.8
2019-03-11T02:30:20.626Z,992.79
2019-03-11T02:31:20.606Z,992.8
2019-03-11T02:32:20.599Z,992.81
2019-03-11T02:33:20.656Z,992.72
2019-03-11T02:34:20.578Z,992.71
2019-03-11T02:35:20.587Z,992.67
2019-03-11T02:36:20.577Z,992.65
2019-03-11T02:37:20.576Z,992.54
2019-03-11T02:38:20.550Z,992.59
2019-03-11T02:39:20.537Z,992.56
2019-03-11T02:40:20.524Z,992.54
2019-03-11T02:41:20.521Z,992.51
2019-03-11T02:42:20.512Z,992.48
2019-03-11T02:43:20.499Z,992.46
2019-03-11T02:44:20.488Z,992.38
2019-03-11T02:45:20.481Z,992.36
2019-03-11T02:46:20.469Z,992.39
2019-03-11T02:47:20.461Z,992.4
2019-03-11T02:48:20.459Z,992.32
2019-03-11T02:49:20.443Z,992.32
2019-03-11T02:50:20.438Z,992.35
2019-03-11T02:51:20.483Z,992.29
2019-03-11T02:52:20.418Z,992.27
2019-03-11T02:53:20.409Z,992.29
2019-03-11T02:54:20.403Z,992.27
2019-03-11T02:55:20.392Z,992.28
2019-03-11T02:56:20.388Z,992.24
2019-03-11T02:57:20.377Z,992.18
2019-03-11T02:58:20.381Z,992.15
2019-03-11T02:59:20.358Z,992.15
2019-03-11T03:00:20.358Z,992.17
2019-03-11T03:01:20.341Z,992.15
2019-03-11T03:02:20.345Z,992.14
2019-03-11T03:03:20.325Z,992.13
2019-03-11T03:04:20.318Z,992.13
2019-03-11T03:05:20.304Z,992.09
2019-03-11T03:06:20.314Z,992.09
2019-03-11T03:07:20.298Z,992.09
2019-03-11T03:08:20.289Z,992.05
2019-03-11T03:09:20.288Z,992.04
2019-03-11T03:10:20.274Z,992.04
2019-03-11T03:11:20.252Z,992.05
2019-03-11T03:12:20.245Z,992.06
2019-03-11T03:13:20.241Z,992.02
2019-03-11T03:14:20.236Z,992.04
2019-03-11T03:15:20.220Z,992.01
2019-03-11T03:16:20.264Z,992.04
2019-03-11T03:17:20.210Z,992.04
2019-03-11T03:18:20.199Z,991.97
2019-03-11T03:19:20.185Z,992
2019-03-11T03:20:20.179Z,991.98
2019-03-11T03:21:20.179Z,992.01
2019-03-11T03:22:20.159Z,991.98
2019-03-11T03:23:20.155Z,992
2019-03-11T03:24:20.170Z,991.98
2019-03-11T03:25:32.677Z,991.97
2019-03-11T03:26:20.144Z,991.98
2019-03-11T03:27:20.125Z,991.94
2019-03-11T03:28:20.113Z,991.88
2019-03-11T03:29:20.113Z,991.97
2019-03-11T03:30:20.134Z,991.96
2019-03-11T03:31:20.085Z,991.96
2019-03-11T03:32:20.082Z,992
2019-03-11T03:33:20.064Z,991.96
2019-03-11T03:34:20.078Z,991.97
2019-03-11T03:35:20.072Z,991.98
2019-03-11T03:36:20.068Z,991.95
2019-03-11T03:37:20.032Z,991.95
2019-03-11T03:38:30.144Z,992
2019-03-11T03:39:20.014Z,991.99
2019-03-11T03:40:20.008Z,991.96
2019-03-11T03:41:19.998Z,991.95
2019-03-11T03:42:19.992Z,991.97
2019-03-11T03:43:19.985Z,991.92
2019-03-11T03:44:19.973Z,991.94
2019-03-11T03:45:19.969Z,991.93
2019-03-11T03:46:19.957Z,991.92
2019-03-11T03:47:19.952Z,991.92
2019-03-11T03:48:19.978Z,991.92
2019-03-11T03:49:20.021Z,991.9
2019-03-11T03:50:19.954Z,991.85
2019-03-11T03:51:19.914Z,991.94
2019-03-11T03:52:19.907Z,991.93
2019-03-11T03:53:19.902Z,991.9
2019-03-11T03:54:19.891Z,991.9
2019-03-11T03:55:19.881Z,991.9
2019-03-11T03:56:19.874Z,991.93
2019-03-11T03:57:19.867Z,991.93
2019-03-11T03:58:19.855Z,991.96
2019-03-11T03:59:19.848Z,991.93
2019-03-11T04:00:19.846Z,991.94
2019-03-11T04:01:19.838Z,991.92
2019-03-11T04:02:19.823Z,991.96
2019-03-11T04:03:19.817Z,991.97
2019-03-11T04:04:19.817Z,991.98
2019-03-11T04:05:19.818Z,992
2019-03-11T04:06:19.800Z,991.95
2019-03-11T04:07:19.809Z,991.95
2019-03-11T04:08:19.774Z,991.96
2019-03-11T04:09:19.783Z,991.93
2019-03-11T04:10:19.902Z,991.89
2019-03-11T04:11:19.759Z,991.93
2019-03-11T04:12:19.746Z,991.88
2019-03-11T04:13:19.736Z,991.84
2019-03-11T04:14:19.725Z,991.81
2019-03-11T04:15:19.721Z,991.79
2019-03-11T04:16:19.714Z,991.81
2019-03-11T04:17:19.702Z,991.78
2019-03-11T04:18:19.698Z,991.79
2019-03-11T04:19:19.686Z,991.71
2019-03-11T04:20:19.678Z,991.7
2019-03-11T04:21:19.670Z,991.71
2019-03-11T04:22:19.662Z,991.76
2019-03-11T04:23:19.669Z,991.78
2019-03-11T04:24:19.657Z,991.79
2019-03-11T04:25:19.723Z,991.75
2019-03-11T04:26:19.631Z,991.75
2019-03-11T04:27:19.623Z,991.77
2019-03-11T04:28:19.615Z,991.77
2019-03-11T04:29:19.607Z,991.71
2019-03-11T04:30:19.596Z,991.67
2019-03-11T04:31:19.589Z,991.68
2019-03-11T04:32:19.580Z,991.66
2019-03-11T04:33:19.587Z,991.69
2019-03-11T04:34:19.570Z,991.71
2019-03-11T04:35:20.670Z,991.71
2019-03-11T04:36:19.549Z,991.75
2019-03-11T04:37:19.540Z,991.72
2019-03-11T04:38:19.530Z,991.68
2019-03-11T04:39:19.521Z,991.64
2019-03-11T04:40:19.513Z,991.59
2019-03-11T04:41:19.505Z,991.54
2019-03-11T04:42:19.498Z,991.53
2019-03-11T04:43:19.489Z,991.42
2019-03-11T04:44:19.484Z,991.49
2019-03-11T04:45:19.473Z,991.55
2019-03-11T04:46:19.470Z,991.53
2019-03-11T04:47:19.452Z,991.51
2019-03-11T04:48:19.446Z,991.42
2019-03-11T04:49:19.439Z,991.41
2019-03-11T04:50:19.426Z,991.34
2019-03-11T04:51:19.419Z,991.29
2019-03-11T04:52:19.414Z,991.24
2019-03-11T04:53:19.423Z,991.16
2019-03-11T04:54:19.393Z,991.16
2019-03-11T04:55:19.386Z,991.08
2019-03-11T04:56:19.374Z,991.07
2019-03-11T04:57:19.368Z,991.03
2019-03-11T04:58:19.360Z,991.11
2019-03-11T04:59:19.356Z,990.97
2019-03-11T05:00:19.342Z,990.91
2019-03-11T05:01:19.338Z,990.65
2019-03-11T05:02:19.322Z,990.7
2019-03-11T05:03:19.321Z,990.59
2019-03-11T05:04:19.303Z,990.54
2019-03-11T05:05:19.294Z,990.58
2019-03-11T05:06:19.284Z,990.55
2019-03-11T05:07:19.277Z,990.59
2019-03-11T05:08:19.266Z,990.5
2019-03-11T05:09:19.487Z,990.52
2019-03-11T05:10:19.256Z,990.71
2019-03-11T05:11:19.243Z,990.67
2019-03-11T05:12:19.234Z,990.63
2019-03-11T05:13:19.226Z,990.76
2019-03-11T05:14:19.223Z,990.68
2019-03-11T05:15:19.205Z,990.77
2019-03-11T05:16:19.199Z,990.81
2019-03-11T05:17:19.189Z,990.86
2019-03-11T05:18:19.183Z,990.79
2019-03-11T05:19:19.170Z,990.77
2019-03-11T05:20:19.217Z,990.83
2019-03-11T05:21:19.155Z,990.86
2019-03-11T05:22:19.150Z,990.72
2019-03-11T05:23:19.146Z,990.7
2019-03-11T05:24:19.128Z,990.75
2019-03-11T05:25:19.122Z,990.67
2019-03-11T05:26:19.112Z,990.73
2019-03-11T05:27:19.100Z,990.54
2019-03-11T05:28:19.089Z,990.81
2019-03-11T05:29:19.091Z,990.72
2019-03-11T05:30:19.103Z,990.9
2019-03-11T05:31:19.065Z,990.85
2019-03-11T05:32:19.071Z,990.87
2019-03-11T05:33:19.046Z,990.82
2019-03-11T05:34:19.074Z,990.8
2019-03-11T05:35:19.035Z,990.91
2019-03-11T05:36:19.022Z,990.86
2019-03-11T05:37:19.008Z,990.89
2019-03-11T05:38:19.008Z,990.87
2019-03-11T05:39:18.998Z,990.65
2019-03-11T05:40:19.048Z,990.64
2019-03-11T05:41:18.972Z,990.74
2019-03-11T05:42:18.965Z,990.79
2019-03-11T05:43:18.956Z,990.74
2019-03-11T05:44:18.946Z,990.82
2019-03-11T05:45:18.938Z,990.8
2019-03-11T05:46:18.931Z,990.68
2019-03-11T05:47:18.917Z,990.74
2019-03-11T05:48:18.907Z,990.85
2019-03-11T05:49:18.902Z,990.88
2019-03-11T05:50:18.903Z,990.82
2019-03-11T05:51:18.879Z,990.84
2019-03-11T05:52:18.882Z,990.83
2019-03-11T05:53:18.863Z,990.82
2019-03-11T05:54:18.852Z,990.83
2019-03-11T05:55:18.849Z,990.88
2019-03-11T05:56:18.848Z,990.79
2019-03-11T05:57:18.849Z,990.86
2019-03-11T05:58:18.823Z,990.95
2019-03-11T05:59:18.822Z,990.88
2019-03-11T06:00:18.798Z,990.89
2019-03-11T06:01:18.786Z,990.86
2019-03-11T06:02:18.777Z,990.91
2019-03-11T06:03:18.767Z,990.92
2019-03-11T06:04:18.760Z,990.98
2019-03-11T06:05:18.749Z,990.92
2019-03-11T06:06:18.741Z,990.96
2019-03-11T06:07:18.731Z,991
2019-03-11T06:08:18.724Z,990.99
2019-03-11T06:09:18.714Z,990.95
2019-03-11T06:10:18.707Z,991.05
2019-03-11T06:11:18.696Z,991.03
2019-03-11T06:12:18.694Z,990.87
2019-03-11T06:13:18.679Z,990.97
2019-03-11T06:14:18.677Z,990.87
2019-03-11T06:15:18.675Z,990.89
2019-03-11T06:16:18.647Z,990.82
2019-03-11T06:17:18.642Z,990.9
2019-03-11T06:18:18.633Z,990.77
2019-03-11T06:19:18.625Z,990.78
2019-03-11T06:20:18.627Z,990.87
2019-03-11T06:21:18.602Z,990.96
2019-03-11T06:22:18.596Z,990.76
2019-03-11T06:23:18.587Z,990.79
2019-03-11T06:24:18.583Z,990.95
2019-03-11T06:25:18.628Z,991.05
2019-03-11T06:26:18.559Z,990.9
2019-03-11T06:27:18.567Z,990.91
2019-03-11T06:28:18.549Z,990.86
2019-03-11T06:29:29.683Z,990.99
2019-03-11T06:30:18.529Z,990.95
2019-03-11T06:31:18.530Z,991.01
2019-03-11T06:32:18.506Z,991.14
2019-03-11T06:33:18.492Z,991.1
2019-03-11T06:34:18.491Z,991.07
2019-03-11T06:35:18.500Z,991.1
2019-03-11T06:36:19.269Z,991.09
2019-03-11T06:37:18.467Z,991.08
2019-03-11T06:38:18.465Z,991.04
2019-03-11T06:39:18.444Z,991.05
2019-03-11T06:40:18.436Z,991.15
2019-03-11T06:41:18.427Z,991.05
2019-03-11T06:42:18.418Z,991.1
2019-03-11T06:43:18.452Z,991.13
2019-03-11T06:44:18.415Z,991.18
2019-03-11T06:45:18.387Z,991.18
2019-03-11T06:46:18.389Z,991.26
2019-03-11T06:47:18.370Z,991.2
2019-03-11T06:48:18.366Z,991.26
2019-03-11T06:49:18.351Z,991.19
2019-03-11T06:50:18.340Z,991.42
2019-03-11T06:51:18.333Z,991.32
2019-03-11T06:52:18.335Z,991.46
2019-03-11T06:53:18.331Z,991.31
2019-03-11T06:54:18.315Z,991.15
2019-03-11T06:55:18.301Z,991.16
2019-03-11T06:56:18.289Z,991.17
2019-03-11T06:57:18.282Z,991.2
2019-03-11T06:58:18.273Z,991.26
2019-03-11T06:59:18.326Z,991.37
2019-03-11T07:00:18.309Z,991.27
2019-03-11T07:01:18.245Z,991.22
2019-03-11T07:02:18.238Z,991.18
2019-03-11T07:03:18.230Z,991.3
2019-03-11T07:04:18.220Z,991.18
2019-03-11T07:05:20.230Z,991.19
2019-03-11T07:06:18.202Z,991.2
2019-03-11T07:07:18.195Z,991.24
2019-03-11T07:08:18.186Z,991.18
2019-03-11T07:09:18.207Z,991.18
2019-03-11T07:10:18.225Z,991.23
2019-03-11T07:11:18.159Z,991.39
2019-03-11T07:12:18.156Z,991.34
2019-03-11T07:13:18.140Z,991.34
2019-03-11T07:14:18.135Z,991.38
2019-03-11T07:15:18.123Z,991.45
2019-03-11T07:16:18.125Z,991.43
2019-03-11T07:17:18.105Z,991.62
2019-03-11T07:18:18.099Z,991.59
2019-03-11T07:19:18.087Z,991.65
2019-03-11T07:20:18.082Z,991.56
2019-03-11T07:21:18.075Z,991.69
2019-03-11T07:22:18.064Z,991.68
2019-03-11T07:23:18.053Z,991.74
2019-03-11T07:24:18.047Z,991.69
2019-03-11T07:25:18.036Z,991.78
2019-03-11T07:26:18.026Z,991.79
2019-03-11T07:27:18.023Z,991.9
2019-03-11T07:28:18.011Z,991.83
2019-03-11T07:29:18.002Z,991.84
2019-03-11T07:30:17.997Z,991.66
2019-03-11T07:31:17.983Z,991.78
2019-03-11T07:32:17.974Z,991.83
2019-03-11T07:33:17.974Z,991.81
2019-03-11T07:34:17.958Z,991.91
2019-03-11T07:35:17.954Z,991.83
2019-03-11T07:36:17.946Z,991.91
2019-03-11T07:37:18.018Z,991.91
2019-03-11T07:38:17.936Z,991.99
2019-03-11T07:39:17.916Z,991.9
2019-03-11T07:40:28.773Z,991.83
2019-03-11T07:41:17.902Z,991.92
2019-03-11T07:42:17.888Z,991.94
2019-03-11T07:43:17.887Z,991.97
2019-03-11T07:44:17.874Z,992
2019-03-11T07:45:17.870Z,991.99
2019-03-11T07:46:17.858Z,992.21
2019-03-11T07:47:17.850Z,991.97
2019-03-11T07:48:17.838Z,991.85
2019-03-11T07:49:17.828Z,991.95
2019-03-11T07:50:17.825Z,992.03
2019-03-11T07:51:17.818Z,992.03
2019-03-11T07:52:17.811Z,992.19
2019-03-11T07:53:17.795Z,992.18
2019-03-11T07:54:17.787Z,992.33
2019-03-11T07:55:17.777Z,992.3
2019-03-11T07:56:17.769Z,992.38
2019-03-11T07:57:17.771Z,992.36
2019-03-11T07:58:17.755Z,992.47
2019-03-11T07:59:17.742Z,992.5
2019-03-11T08:00:17.737Z,992.49
2019-03-11T08:01:17.737Z,992.48
2019-03-11T08:02:18.409Z,992.46
2019-03-11T08:03:17.709Z,992.52
2019-03-11T08:04:17.706Z,992.52
2019-03-11T08:05:17.689Z,992.62
2019-03-11T08:06:18.721Z,992.58
2019-03-11T08:07:17.687Z,992.56
2019-03-11T08:08:17.665Z,992.55
2019-03-11T08:09:17.653Z,992.54
2019-03-11T08:10:17.726Z,992.54
2019-03-11T08:11:17.637Z,992.55
2019-03-11T08:12:17.622Z,992.61
2019-03-11T08:13:17.616Z,992.63
2019-03-11T08:14:17.604Z,992.66
2019-03-11T08:15:17.596Z,992.7
2019-03-11T08:16:17.589Z,992.63
2019-03-11T08:17:17.580Z,992.61
2019-03-11T08:18:17.569Z,992.73
2019-03-11T08:19:17.561Z,992.74
2019-03-11T08:20:17.554Z,992.88
2019-03-11T08:21:17.542Z,992.9
2019-03-11T08:22:17.534Z,992.91
2019-03-11T08:23:17.527Z,992.81
2019-03-11T08:24:17.516Z,992.89
2019-03-11T08:25:17.520Z,992.92
2019-03-11T08:26:17.497Z,992.96
2019-03-11T08:27:17.488Z,992.9
2019-03-11T08:28:17.477Z,992.88
2019-03-11T08:29:17.464Z,992.85
2019-03-11T08:30:17.456Z,992.84
2019-03-11T08:31:17.447Z,992.95
2019-03-11T08:32:17.509Z,992.91
2019-03-11T08:33:17.426Z,993
2019-03-11T08:34:17.436Z,993.05
2019-03-11T08:35:17.419Z,992.98
2019-03-11T08:36:17.401Z,993.01
2019-03-11T08:37:17.393Z,993.07
2019-03-11T08:38:17.392Z,992.99
2019-03-11T08:39:17.460Z,992.95
2019-03-11T08:40:17.370Z,993.01
2019-03-11T08:41:17.369Z,993
2019-03-11T08:42:17.367Z,993.09
2019-03-11T08:43:17.336Z,993.17
2019-03-11T08:44:17.326Z,993.19
2019-03-11T08:45:17.336Z,993.22
2019-03-11T08:46:17.311Z,993.17
2019-03-11T08:47:17.308Z,993.21
2019-03-11T08:48:17.302Z,993.24
2019-03-11T08:49:17.288Z,993.24
2019-03-11T08:50:17.276Z,993.19
2019-03-11T08:51:17.272Z,993.12
2019-03-11T08:52:17.261Z,993.09
2019-03-11T08:53:17.258Z,993.09
2019-03-11T08:54:17.252Z,993.07
2019-03-11T08:55:17.308Z,993.03
2019-03-11T08:56:17.231Z,992.98
2019-03-11T08:57:17.234Z,993.01
2019-03-11T08:58:17.281Z,993.02
2019-03-11T08:59:17.212Z,992.99
2019-03-11T09:00:17.308Z,992.99
2019-03-11T09:01:17.197Z,992.98
2019-03-11T09:02:17.187Z,993.07
2019-03-11T09:03:17.179Z,993.06
2019-03-11T09:04:17.175Z,993.12
2019-03-11T09:05:17.172Z,993.1
2019-03-11T09:06:17.167Z,993.09
2019-03-11T09:07:19.065Z,993.1
2019-03-11T09:08:17.150Z,993.07
2019-03-11T09:09:17.136Z,993.07
2019-03-11T09:10:17.169Z,993.09
2019-03-11T09:11:17.141Z,993
2019-03-11T09:12:17.121Z,992.96
2019-03-11T09:13:17.149Z,993
2019-03-11T09:14:17.110Z,992.94
2019-03-11T09:15:17.101Z,992.95
2019-03-11T09:16:17.093Z,992.95
2019-03-11T09:17:17.091Z,992.94
2019-03-11T09:18:17.081Z,992.97
2019-03-11T09:19:17.079Z,992.97
2019-03-11T09:20:17.073Z,992.93
2019-03-11T09:21:17.069Z,992.82
2019-03-11T09:22:17.055Z,992.93
2019-03-11T09:23:17.049Z,992.88
2019-03-11T09:24:19.379Z,992.91
2019-03-11T09:25:17.055Z,992.92
2019-03-11T09:26:17.031Z,992.9
2019-03-11T09:27:17.026Z,992.97
2019-03-11T09:28:17.062Z,992.89
2019-03-11T09:29:17.034Z,993
2019-03-11T09:30:17.035Z,992.91
2019-03-11T09:31:17.004Z,992.98
2019-03-11T09:32:19.253Z,992.95
2019-03-11T09:33:16.989Z,993.07
2019-03-11T09:34:16.980Z,993.02
2019-03-11T09:35:16.977Z,993.03
2019-03-11T09:36:16.969Z,993.03
2019-03-11T09:37:16.982Z,993.1
2019-03-11T09:38:16.970Z,993.03
2019-03-11T09:39:16.946Z,993.09
2019-03-11T09:40:16.944Z,993.14
2019-03-11T09:41:16.935Z,992.99
2019-03-11T09:42:16.924Z,992.9
2019-03-11T09:43:16.921Z,993.02
2019-03-11T09:44:16.912Z,993.04
2019-03-11T09:45:16.929Z,993.13
2019-03-11T09:46:16.899Z,993.16
2019-03-11T09:47:16.896Z,993.13
2019-03-11T09:48:16.895Z,993.08
2019-03-11T09:49:16.899Z,993.03
2019-03-11T09:50:16.945Z,992.99
2019-03-11T09:51:16.867Z,992.99
2019-03-11T09:52:16.861Z,993.1
2019-03-11T09:53:16.852Z,992.98
2019-03-11T09:54:16.853Z,993.04
2019-03-11T09:55:16.856Z,993.06
2019-03-11T09:56:16.840Z,993.04
2019-03-11T09:57:16.836Z,993.05
2019-03-11T09:58:16.822Z,992.94
2019-03-11T09:59:16.819Z,992.93
2019-03-11T10:00:16.887Z,992.97
2019-03-11T10:01:17.131Z,993.1
2019-03-11T10:02:16.794Z,993.08
2019-03-11T10:03:16.791Z,993.14
2019-03-11T10:04:16.784Z,993.12
2019-03-11T10:05:16.775Z,993.19
2019-03-11T10:06:16.766Z,993.2
2019-03-11T10:07:16.760Z,993.15
2019-03-11T10:08:19.660Z,993.12
2019-03-11T10:09:16.749Z,993.26
2019-03-11T10:10:16.880Z,993.14
2019-03-11T10:11:16.736Z,993.18
2019-03-11T10:12:16.728Z,993.17
2019-03-11T10:13:16.722Z,993.23
2019-03-11T10:14:16.718Z,993.22
2019-03-11T10:15:16.792Z,993.26
2019-03-11T10:16:16.740Z,993.28
2019-03-11T10:17:16.698Z,993.21
2019-03-11T10:18:16.699Z,993.35
2019-03-11T10:19:16.685Z,993.24
2019-03-11T10:20:16.680Z,993.36
2019-03-11T10:21:16.687Z,993.37
2019-03-11T10:22:16.664Z,993.38
2019-03-11T10:23:16.659Z,993.39
2019-03-11T10:24:16.668Z,993.38
2019-03-11T10:25:16.708Z,993.36
2019-03-11T10:26:16.671Z,993.45
2019-03-11T10:27:16.632Z,993.44
2019-03-11T10:28:16.642Z,993.41
2019-03-11T10:29:16.623Z,993.38
2019-03-11T10:30:16.711Z,993.48
2019-03-11T10:31:16.610Z,993.38
2019-03-11T10:32:16.606Z,993.34
2019-03-11T10:33:16.599Z,993.36
2019-03-11T10:34:16.596Z,993.44
2019-03-11T10:35:30.535Z,993.39
2019-03-11T10:36:16.583Z,993.42
2019-03-11T10:37:16.575Z,993.38
2019-03-11T10:38:16.573Z,993.47
2019-03-11T10:39:18.364Z,993.37
2019-03-11T10:40:16.682Z,993.56
2019-03-11T10:41:16.556Z,993.55
2019-03-11T10:42:16.547Z,993.46
2019-03-11T10:43:16.539Z,993.61
2019-03-11T10:44:16.536Z,993.56
2019-03-11T10:45:16.603Z,993.59
2019-03-11T10:46:16.523Z,993.48
2019-03-11T10:47:16.519Z,993.68
2019-03-11T10:48:16.533Z,993.66
2019-03-11T10:49:16.511Z,993.66
2019-03-11T10:50:16.629Z,993.63
2019-03-11T10:51:16.491Z,993.51
2019-03-11T10:52:16.491Z,993.56
2019-03-11T10:53:16.490Z,993.5
2019-03-11T10:54:16.473Z,993.53
2019-03-11T10:55:16.566Z,993.53
2019-03-11T10:56:16.462Z,993.63
2019-03-11T10:57:16.459Z,993.59
2019-03-11T10:58:16.451Z,993.56
2019-03-11T10:59:16.450Z,993.65
2019-03-11T11:00:16.447Z,993.62
2019-03-11T11:01:16.431Z,993.74
2019-03-11T11:02:16.430Z,993.77
2019-03-11T11:03:16.417Z,993.81
2019-03-11T11:04:16.412Z,993.78
2019-03-11T11:05:16.498Z,993.85
2019-03-11T11:06:17.279Z,993.83
2019-03-11T11:07:16.396Z,993.83
2019-03-11T11:08:16.391Z,993.89
2019-03-11T11:09:16.389Z,993.95
2019-03-11T11:10:16.539Z,993.91
2019-03-11T11:11:16.368Z,993.89
2019-03-11T11:12:16.364Z,993.94
2019-03-11T11:13:16.356Z,994.06
2019-03-11T11:14:16.350Z,993.87
2019-03-11T11:15:16.394Z,993.92
2019-03-11T11:16:16.336Z,993.96
2019-03-11T11:17:16.339Z,993.81
2019-03-11T11:18:16.325Z,993.84
2019-03-11T11:19:16.358Z,993.84
2019-03-11T11:20:16.316Z,993.89
2019-03-11T11:21:16.316Z,993.98
2019-03-11T11:22:16.303Z,993.92
2019-03-11T11:23:16.294Z,994.03
2019-03-11T11:24:16.287Z,994.09
2019-03-11T11:25:16.280Z,994.1
2019-03-11T11:26:16.303Z,994.1
2019-03-11T11:27:16.274Z,994.03
2019-03-11T11:28:16.273Z,994.09
2019-03-11T11:29:16.257Z,994
2019-03-11T11:30:16.351Z,994
2019-03-11T11:31:16.258Z,994.09
2019-03-11T11:32:16.247Z,994.17
2019-03-11T11:33:16.242Z,994.24
2019-03-11T11:34:16.223Z,994.21
2019-03-11T11:35:16.253Z,994.22
2019-03-11T11:36:16.274Z,994.22
2019-03-11T11:37:16.215Z,994.18
2019-03-11T11:38:16.198Z,994.21
2019-03-11T11:39:16.197Z,994.14
2019-03-11T11:40:21.046Z,994.12
2019-03-11T11:41:16.667Z,994.09
2019-03-11T11:42:16.168Z,994.1
2019-03-11T11:43:16.165Z,994.04
2019-03-11T11:44:16.158Z,994.08
2019-03-11T11:45:16.208Z,994.09
2019-03-11T11:46:16.153Z,994.09
2019-03-11T11:47:16.151Z,994.05
2019-03-11T11:48:16.135Z,994.08
2019-03-11T11:49:16.134Z,994
2019-03-11T11:50:16.239Z,994.01
2019-03-11T11:51:16.121Z,993.96
2019-03-11T11:52:16.112Z,994.04
2019-03-11T11:53:16.103Z,994.04
2019-03-11T11:54:16.095Z,994.01
2019-03-11T11:55:16.099Z,994.03
2019-03-11T11:56:16.095Z,993.93
2019-03-11T11:57:16.080Z,993.99
2019-03-11T11:58:16.080Z,993.94
2019-03-11T11:59:16.063Z,993.93
2019-03-11T12:00:16.095Z,993.96
2019-03-11T12:01:16.059Z,994.01
2019-03-11T12:02:16.046Z,994
2019-03-11T12:03:16.043Z,994.04
2019-03-11T12:04:16.039Z,994.05
2019-03-11T12:05:16.101Z,994.05
2019-03-11T12:06:16.025Z,994.14
2019-03-11T12:07:16.019Z,994.11
2019-03-11T12:08:16.006Z,994.17
2019-03-11T12:09:16.001Z,994.03
2019-03-11T12:10:16.010Z,994.08
2019-03-11T12:11:15.986Z,994.01
2019-03-11T12:12:15.988Z,994.05
2019-03-11T12:13:15.978Z,994.08
2019-03-11T12:14:15.989Z,994.06
2019-03-11T12:15:16.014Z,994.19
2019-03-11T12:16:15.957Z,994.19
2019-03-11T12:17:15.953Z,994.3
2019-03-11T12:18:15.950Z,994.37
2019-03-11T12:19:15.959Z,994.25
2019-03-11T12:20:15.966Z,994.38
2019-03-11T12:21:15.937Z,994.28
2019-03-11T12:22:15.919Z,994.33
2019-03-11T12:23:15.915Z,994.26
2019-03-11T12:24:15.911Z,994.37
2019-03-11T12:25:15.946Z,994.28
2019-03-11T12:26:15.898Z,994.35
2019-03-11T12:27:15.892Z,994.4
2019-03-11T12:28:15.883Z,994.36
2019-03-11T12:29:15.887Z,994.39
2019-03-11T12:30:15.936Z,994.34
2019-03-11T12:31:15.874Z,994.32
2019-03-11T12:32:15.862Z,994.34